sensor_id;sensor_type;location;lat;lon;timestamp;P1;durP1;ratioP1;P2;durP2;ratioP2
11996;SDS011;6058;48.704;9.474;2023-03-23T00:02:19;3.57;;;2.63;;
11996;SDS011;6058;48.704;9.474;2023-03-23T00:04:47;2.97;;;2.53;;
11996;SDS011;6058;48.704;9.474;2023-03-23T00:07:15;4.43;;;2.70;;
11996;SDS011;6058;48.704;9.474;2023-03-23T00:09:46;3.63;;;2.70;;
11996;SDS011;6058;48.704;9.474;2023-03-23T00:12:17;2.80;;;2.53;;
11996;SDS011;6058;48.704;9.474;2023-03-23T00:14:44;4.40;;;2.53;;
11996;SDS011;6058;48.704;9.474;2023-03-23T00:17:12;4.87;;;3.10;;
11996;SDS011;6058;48.704;9.474;2023-03-23T00:19:40;2.50;;;2.30;;
11996;SDS011;6058;48.704;9.474;2023-03-23T00:22:13;5.83;;;2.80;;
11996;SDS011;6058;48.704;9.474;2023-03-23T00:27:10;4.80;;;2.93;;
11996;SDS011;6058;48.704;9.474;2023-03-23T00:29:39;3.87;;;3.07;;
11996;SDS011;6058;48.704;9.474;2023-03-23T00:32:07;3.60;;;3.23;;
11996;SDS011;6058;48.704;9.474;2023-03-23T00:34:38;3.87;;;2.70;;
11996;SDS011;6058;48.704;9.474;2023-03-23T00:37:06;3.20;;;2.47;;
11996;SDS011;6058;48.704;9.474;2023-03-23T00:39:35;4.97;;;2.93;;
11996;SDS011;6058;48.704;9.474;2023-03-23T00:42:11;4.40;;;2.70;;
11996;SDS011;6058;48.704;9.474;2023-03-23T00:44:38;3.97;;;2.50;;
11996;SDS011;6058;48.704;9.474;2023-03-23T00:47:06;4.50;;;3.17;;
11996;SDS011;6058;48.704;9.474;2023-03-23T00:49:35;4.40;;;2.57;;
11996;SDS011;6058;48.704;9.474;2023-03-23T00:52:03;2.90;;;2.60;;
11996;SDS011;6058;48.704;9.474;2023-03-23T00:54:31;3.67;;;2.73;;
11996;SDS011;6058;48.704;9.474;2023-03-23T00:57:00;3.80;;;2.87;;
11996;SDS011;6058;48.704;9.474;2023-03-23T00:59:27;4.10;;;2.70;;
11996;SDS011;6058;48.704;9.474;2023-03-23T01:01:54;2.87;;;2.60;;
11996;SDS011;6058;48.704;9.474;2023-03-23T01:04:21;3.10;;;2.40;;
11996;SDS011;6058;48.704;9.474;2023-03-23T01:06:49;3.60;;;2.70;;
11996;SDS011;6058;48.704;9.474;2023-03-23T01:09:16;3.13;;;2.80;;
11996;SDS011;6058;48.704;9.474;2023-03-23T01:11:44;4.13;;;3.03;;
11996;SDS011;6058;48.704;9.474;2023-03-23T01:14:14;7.50;;;3.00;;
11996;SDS011;6058;48.704;9.474;2023-03-23T01:16:42;3.17;;;2.67;;
11996;SDS011;6058;48.704;9.474;2023-03-23T01:19:09;3.30;;;2.67;;
11996;SDS011;6058;48.704;9.474;2023-03-23T01:21:36;4.67;;;2.57;;
11996;SDS011;6058;48.704;9.474;2023-03-23T01:24:04;3.10;;;2.53;;
11996;SDS011;6058;48.704;9.474;2023-03-23T01:26:31;4.77;;;2.87;;
11996;SDS011;6058;48.704;9.474;2023-03-23T01:28:58;4.23;;;2.47;;
11996;SDS011;6058;48.704;9.474;2023-03-23T01:31:27;4.47;;;2.83;;
11996;SDS011;6058;48.704;9.474;2023-03-23T01:33:54;3.63;;;2.70;;
11996;SDS011;6058;48.704;9.474;2023-03-23T01:36:22;4.20;;;2.80;;
11996;SDS011;6058;48.704;9.474;2023-03-23T01:38:50;3.60;;;2.73;;
11996;SDS011;6058;48.704;9.474;2023-03-23T01:41:18;4.00;;;3.23;;
11996;SDS011;6058;48.704;9.474;2023-03-23T01:43:55;5.07;;;2.70;;
11996;SDS011;6058;48.704;9.474;2023-03-23T01:46:24;3.73;;;2.47;;
11996;SDS011;6058;48.704;9.474;2023-03-23T01:48:53;3.37;;;2.73;;
11996;SDS011;6058;48.704;9.474;2023-03-23T01:51:21;2.77;;;2.57;;
11996;SDS011;6058;48.704;9.474;2023-03-23T01:53:50;2.97;;;2.63;;
11996;SDS011;6058;48.704;9.474;2023-03-23T01:56:18;5.30;;;3.30;;
11996;SDS011;6058;48.704;9.474;2023-03-23T01:58:50;2.70;;;2.27;;
11996;SDS011;6058;48.704;9.474;2023-03-23T02:01:17;5.30;;;3.00;;
11996;SDS011;6058;48.704;9.474;2023-03-23T02:03:46;4.47;;;2.40;;
11996;SDS011;6058;48.704;9.474;2023-03-23T02:06:15;5.87;;;2.63;;
11996;SDS011;6058;48.704;9.474;2023-03-23T02:08:43;4.90;;;2.80;;
11996;SDS011;6058;48.704;9.474;2023-03-23T02:11:12;3.93;;;2.73;;
11996;SDS011;6058;48.704;9.474;2023-03-23T02:13:40;4.07;;;2.73;;
11996;SDS011;6058;48.704;9.474;2023-03-23T02:16:08;3.30;;;2.77;;
11996;SDS011;6058;48.704;9.474;2023-03-23T02:18:44;6.27;;;3.13;;
11996;SDS011;6058;48.704;9.474;2023-03-23T02:24:01;4.17;;;2.77;;
11996;SDS011;6058;48.704;9.474;2023-03-23T02:26:38;5.83;;;3.17;;
11996;SDS011;6058;48.704;9.474;2023-03-23T02:29:16;3.90;;;2.87;;
11996;SDS011;6058;48.704;9.474;2023-03-23T02:31:52;4.53;;;2.87;;
11996;SDS011;6058;48.704;9.474;2023-03-23T02:34:25;7.73;;;3.00;;
11996;SDS011;6058;48.704;9.474;2023-03-23T02:36:56;3.13;;;2.70;;
11996;SDS011;6058;48.704;9.474;2023-03-23T02:39:25;3.53;;;2.67;;
11996;SDS011;6058;48.704;9.474;2023-03-23T02:41:56;6.13;;;2.63;;
11996;SDS011;6058;48.704;9.474;2023-03-23T02:44:24;3.10;;;2.70;;
11996;SDS011;6058;48.704;9.474;2023-03-23T02:46:54;3.03;;;2.60;;
11996;SDS011;6058;48.704;9.474;2023-03-23T02:49:24;6.50;;;2.73;;
11996;SDS011;6058;48.704;9.474;2023-03-23T02:51:52;5.00;;;2.93;;
11996;SDS011;6058;48.704;9.474;2023-03-23T02:54:20;6.60;;;2.93;;
11996;SDS011;6058;48.704;9.474;2023-03-23T02:56:49;12.03;;;3.10;;
11996;SDS011;6058;48.704;9.474;2023-03-23T02:59:17;5.03;;;2.77;;
11996;SDS011;6058;48.704;9.474;2023-03-23T03:01:46;3.27;;;2.50;;
11996;SDS011;6058;48.704;9.474;2023-03-23T03:04:15;4.33;;;3.03;;
11996;SDS011;6058;48.704;9.474;2023-03-23T03:06:46;3.93;;;3.13;;
11996;SDS011;6058;48.704;9.474;2023-03-23T03:09:17;4.60;;;3.30;;
11996;SDS011;6058;48.704;9.474;2023-03-23T03:11:49;3.27;;;2.97;;
11996;SDS011;6058;48.704;9.474;2023-03-23T03:14:19;5.00;;;2.73;;
11996;SDS011;6058;48.704;9.474;2023-03-23T03:16:49;3.47;;;2.73;;
11996;SDS011;6058;48.704;9.474;2023-03-23T03:19:20;8.03;;;2.93;;
11996;SDS011;6058;48.704;9.474;2023-03-23T03:21:52;3.83;;;3.00;;
11996;SDS011;6058;48.704;9.474;2023-03-23T03:24:20;4.63;;;2.90;;
11996;SDS011;6058;48.704;9.474;2023-03-23T03:26:49;4.43;;;2.83;;
11996;SDS011;6058;48.704;9.474;2023-03-23T03:29:18;3.93;;;3.03;;
11996;SDS011;6058;48.704;9.474;2023-03-23T03:31:45;3.37;;;3.07;;
11996;SDS011;6058;48.704;9.474;2023-03-23T03:34:14;3.50;;;2.97;;
11996;SDS011;6058;48.704;9.474;2023-03-23T03:36:43;6.33;;;3.27;;
11996;SDS011;6058;48.704;9.474;2023-03-23T03:39:12;4.00;;;2.67;;
11996;SDS011;6058;48.704;9.474;2023-03-23T03:41:40;3.20;;;2.53;;
11996;SDS011;6058;48.704;9.474;2023-03-23T03:44:08;4.40;;;2.70;;
11996;SDS011;6058;48.704;9.474;2023-03-23T03:46:35;5.27;;;3.47;;
11996;SDS011;6058;48.704;9.474;2023-03-23T03:49:03;6.30;;;3.00;;
11996;SDS011;6058;48.704;9.474;2023-03-23T03:51:32;3.83;;;2.57;;
11996;SDS011;6058;48.704;9.474;2023-03-23T03:53:59;7.47;;;3.03;;
11996;SDS011;6058;48.704;9.474;2023-03-23T03:56:28;3.47;;;2.73;;
11996;SDS011;6058;48.704;9.474;2023-03-23T03:58:57;3.53;;;3.10;;
11996;SDS011;6058;48.704;9.474;2023-03-23T04:01:24;3.20;;;2.90;;
11996;SDS011;6058;48.704;9.474;2023-03-23T04:03:51;3.50;;;3.10;;
11996;SDS011;6058;48.704;9.474;2023-03-23T04:06:18;6.07;;;3.10;;
11996;SDS011;6058;48.704;9.474;2023-03-23T04:08:46;3.17;;;2.80;;
11996;SDS011;6058;48.704;9.474;2023-03-23T04:11:13;4.37;;;2.70;;
11996;SDS011;6058;48.704;9.474;2023-03-23T04:13:42;5.40;;;2.43;;
11996;SDS011;6058;48.704;9.474;2023-03-23T04:16:09;3.37;;;2.60;;
11996;SDS011;6058;48.704;9.474;2023-03-23T04:18:37;5.40;;;3.03;;
11996;SDS011;6058;48.704;9.474;2023-03-23T04:21:04;4.73;;;2.73;;
11996;SDS011;6058;48.704;9.474;2023-03-23T04:23:33;4.23;;;2.77;;
11996;SDS011;6058;48.704;9.474;2023-03-23T04:26:01;3.53;;;2.70;;
11996;SDS011;6058;48.704;9.474;2023-03-23T04:28:28;2.97;;;2.47;;
11996;SDS011;6058;48.704;9.474;2023-03-23T04:31:00;2.93;;;2.67;;
11996;SDS011;6058;48.704;9.474;2023-03-23T04:33:28;3.37;;;2.67;;
11996;SDS011;6058;48.704;9.474;2023-03-23T04:35:56;2.83;;;2.40;;
11996;SDS011;6058;48.704;9.474;2023-03-23T04:38:23;4.60;;;2.80;;
11996;SDS011;6058;48.704;9.474;2023-03-23T04:40:51;3.17;;;2.33;;
11996;SDS011;6058;48.704;9.474;2023-03-23T04:43:20;5.53;;;2.83;;
11996;SDS011;6058;48.704;9.474;2023-03-23T04:45:47;5.30;;;2.70;;
11996;SDS011;6058;48.704;9.474;2023-03-23T04:48:22;2.60;;;2.20;;
11996;SDS011;6058;48.704;9.474;2023-03-23T04:50:49;3.97;;;2.97;;
11996;SDS011;6058;48.704;9.474;2023-03-23T04:53:17;4.13;;;2.53;;
11996;SDS011;6058;48.704;9.474;2023-03-23T04:55:44;4.37;;;2.97;;
11996;SDS011;6058;48.704;9.474;2023-03-23T04:58:12;3.60;;;2.70;;
11996;SDS011;6058;48.704;9.474;2023-03-23T05:00:39;4.00;;;2.80;;
11996;SDS011;6058;48.704;9.474;2023-03-23T05:03:08;2.77;;;2.40;;
11996;SDS011;6058;48.704;9.474;2023-03-23T05:05:37;8.07;;;2.63;;
11996;SDS011;6058;48.704;9.474;2023-03-23T05:08:05;2.47;;;2.27;;
11996;SDS011;6058;48.704;9.474;2023-03-23T05:10:32;2.70;;;2.30;;
11996;SDS011;6058;48.704;9.474;2023-03-23T05:12:59;3.40;;;2.60;;
11996;SDS011;6058;48.704;9.474;2023-03-23T05:15:26;5.03;;;2.77;;
11996;SDS011;6058;48.704;9.474;2023-03-23T05:17:53;3.97;;;2.67;;
11996;SDS011;6058;48.704;9.474;2023-03-23T05:20:21;3.00;;;2.80;;
11996;SDS011;6058;48.704;9.474;2023-03-23T05:22:49;3.73;;;3.00;;
11996;SDS011;6058;48.704;9.474;2023-03-23T05:25:17;4.23;;;3.00;;
11996;SDS011;6058;48.704;9.474;2023-03-23T05:27:45;3.43;;;2.33;;
11996;SDS011;6058;48.704;9.474;2023-03-23T05:30:14;3.70;;;2.80;;
11996;SDS011;6058;48.704;9.474;2023-03-23T05:32:42;6.27;;;2.80;;
11996;SDS011;6058;48.704;9.474;2023-03-23T05:35:10;2.77;;;2.40;;
11996;SDS011;6058;48.704;9.474;2023-03-23T05:37:37;4.47;;;2.80;;
11996;SDS011;6058;48.704;9.474;2023-03-23T05:40:07;4.20;;;2.50;;
11996;SDS011;6058;48.704;9.474;2023-03-23T05:42:35;3.23;;;2.53;;
11996;SDS011;6058;48.704;9.474;2023-03-23T05:45:02;4.67;;;2.63;;
11996;SDS011;6058;48.704;9.474;2023-03-23T05:47:30;3.03;;;2.50;;
11996;SDS011;6058;48.704;9.474;2023-03-23T05:49:57;3.10;;;2.80;;
11996;SDS011;6058;48.704;9.474;2023-03-23T05:52:25;4.90;;;2.70;;
11996;SDS011;6058;48.704;9.474;2023-03-23T05:54:53;4.90;;;3.00;;
11996;SDS011;6058;48.704;9.474;2023-03-23T05:57:21;3.27;;;2.70;;
11996;SDS011;6058;48.704;9.474;2023-03-23T05:59:48;4.47;;;2.77;;
11996;SDS011;6058;48.704;9.474;2023-03-23T06:02:15;3.07;;;2.73;;
11996;SDS011;6058;48.704;9.474;2023-03-23T06:04:43;2.63;;;2.43;;
11996;SDS011;6058;48.704;9.474;2023-03-23T06:07:10;3.27;;;2.63;;
11996;SDS011;6058;48.704;9.474;2023-03-23T06:09:38;5.27;;;3.00;;
11996;SDS011;6058;48.704;9.474;2023-03-23T06:12:06;3.67;;;2.90;;
11996;SDS011;6058;48.704;9.474;2023-03-23T06:14:35;4.13;;;3.73;;
11996;SDS011;6058;48.704;9.474;2023-03-23T06:17:03;3.17;;;2.50;;
11996;SDS011;6058;48.704;9.474;2023-03-23T06:19:31;2.90;;;2.50;;
11996;SDS011;6058;48.704;9.474;2023-03-23T06:21:59;4.40;;;2.30;;
11996;SDS011;6058;48.704;9.474;2023-03-23T06:26:55;3.30;;;2.77;;
11996;SDS011;6058;48.704;9.474;2023-03-23T06:29:22;3.73;;;2.97;;
11996;SDS011;6058;48.704;9.474;2023-03-23T06:31:52;2.87;;;2.50;;
11996;SDS011;6058;48.704;9.474;2023-03-23T06:34:20;2.97;;;2.67;;
11996;SDS011;6058;48.704;9.474;2023-03-23T06:36:48;4.10;;;3.03;;
11996;SDS011;6058;48.704;9.474;2023-03-23T06:39:15;4.23;;;2.50;;
11996;SDS011;6058;48.704;9.474;2023-03-23T06:41:42;4.47;;;2.73;;
11996;SDS011;6058;48.704;9.474;2023-03-23T06:44:09;5.70;;;2.50;;
11996;SDS011;6058;48.704;9.474;2023-03-23T06:46:38;3.73;;;3.20;;
11996;SDS011;6058;48.704;9.474;2023-03-23T06:49:07;3.57;;;3.10;;
11996;SDS011;6058;48.704;9.474;2023-03-23T06:51:35;2.83;;;2.50;;
11996;SDS011;6058;48.704;9.474;2023-03-23T06:54:02;3.10;;;2.83;;
11996;SDS011;6058;48.704;9.474;2023-03-23T06:56:29;3.23;;;2.80;;
11996;SDS011;6058;48.704;9.474;2023-03-23T06:58:57;4.00;;;2.50;;
11996;SDS011;6058;48.704;9.474;2023-03-23T07:01:24;3.60;;;3.00;;
11996;SDS011;6058;48.704;9.474;2023-03-23T07:03:53;3.17;;;2.73;;
11996;SDS011;6058;48.704;9.474;2023-03-23T07:06:23;7.97;;;3.23;;
11996;SDS011;6058;48.704;9.474;2023-03-23T07:08:51;7.73;;;6.40;;
11996;SDS011;6058;48.704;9.474;2023-03-23T07:11:18;5.97;;;3.93;;
11996;SDS011;6058;48.704;9.474;2023-03-23T07:13:45;2.70;;;2.50;;
11996;SDS011;6058;48.704;9.474;2023-03-23T07:16:14;5.23;;;3.30;;
11996;SDS011;6058;48.704;9.474;2023-03-23T07:18:44;6.20;;;3.47;;
11996;SDS011;6058;48.704;9.474;2023-03-23T07:21:12;4.33;;;3.20;;
11996;SDS011;6058;48.704;9.474;2023-03-23T07:23:40;5.87;;;3.20;;
11996;SDS011;6058;48.704;9.474;2023-03-23T07:26:07;2.90;;;2.70;;
11996;SDS011;6058;48.704;9.474;2023-03-23T07:28:34;4.00;;;3.50;;
11996;SDS011;6058;48.704;9.474;2023-03-23T07:31:01;3.93;;;3.47;;
11996;SDS011;6058;48.704;9.474;2023-03-23T07:33:29;3.77;;;3.03;;
11996;SDS011;6058;48.704;9.474;2023-03-23T07:35:58;4.57;;;2.60;;
11996;SDS011;6058;48.704;9.474;2023-03-23T07:38:26;3.60;;;2.77;;
11996;SDS011;6058;48.704;9.474;2023-03-23T07:40:55;5.10;;;3.30;;
11996;SDS011;6058;48.704;9.474;2023-03-23T07:43:23;4.07;;;2.63;;
11996;SDS011;6058;48.704;9.474;2023-03-23T07:45:51;5.57;;;3.40;;
11996;SDS011;6058;48.704;9.474;2023-03-23T07:48:18;5.10;;;3.00;;
11996;SDS011;6058;48.704;9.474;2023-03-23T07:50:45;4.47;;;3.10;;
11996;SDS011;6058;48.704;9.474;2023-03-23T07:53:13;2.90;;;2.50;;
11996;SDS011;6058;48.704;9.474;2023-03-23T07:55:40;3.30;;;2.90;;
11996;SDS011;6058;48.704;9.474;2023-03-23T07:58:08;5.17;;;2.90;;
11996;SDS011;6058;48.704;9.474;2023-03-23T08:00:36;4.67;;;2.67;;
11996;SDS011;6058;48.704;9.474;2023-03-23T08:03:05;4.40;;;2.80;;
11996;SDS011;6058;48.704;9.474;2023-03-23T08:05:32;3.50;;;2.87;;
11996;SDS011;6058;48.704;9.474;2023-03-23T08:07:59;3.70;;;2.50;;
11996;SDS011;6058;48.704;9.474;2023-03-23T08:10:26;4.67;;;2.90;;
11996;SDS011;6058;48.704;9.474;2023-03-23T08:12:55;3.97;;;2.83;;
11996;SDS011;6058;48.704;9.474;2023-03-23T08:15:23;5.43;;;3.00;;
11996;SDS011;6058;48.704;9.474;2023-03-23T08:17:51;3.37;;;3.03;;
11996;SDS011;6058;48.704;9.474;2023-03-23T08:20:19;4.63;;;3.00;;
11996;SDS011;6058;48.704;9.474;2023-03-23T08:22:49;5.63;;;3.07;;
11996;SDS011;6058;48.704;9.474;2023-03-23T08:25:18;4.30;;;3.27;;
11996;SDS011;6058;48.704;9.474;2023-03-23T08:27:45;5.97;;;3.53;;
11996;SDS011;6058;48.704;9.474;2023-03-23T08:30:13;4.27;;;3.40;;
11996;SDS011;6058;48.704;9.474;2023-03-23T08:32:42;5.07;;;3.20;;
11996;SDS011;6058;48.704;9.474;2023-03-23T08:35:09;5.60;;;2.83;;
11996;SDS011;6058;48.704;9.474;2023-03-23T08:37:37;3.50;;;2.50;;
11996;SDS011;6058;48.704;9.474;2023-03-23T08:40:08;3.07;;;2.57;;
11996;SDS011;6058;48.704;9.474;2023-03-23T08:42:35;2.97;;;2.10;;
11996;SDS011;6058;48.704;9.474;2023-03-23T08:45:03;2.37;;;1.80;;
11996;SDS011;6058;48.704;9.474;2023-03-23T08:47:32;4.30;;;2.20;;
11996;SDS011;6058;48.704;9.474;2023-03-23T08:50:00;4.70;;;1.93;;
11996;SDS011;6058;48.704;9.474;2023-03-23T08:52:28;2.27;;;2.00;;
11996;SDS011;6058;48.704;9.474;2023-03-23T08:54:55;2.47;;;2.00;;
11996;SDS011;6058;48.704;9.474;2023-03-23T08:57:23;3.23;;;2.20;;
11996;SDS011;6058;48.704;9.474;2023-03-23T08:59:50;3.93;;;2.37;;
11996;SDS011;6058;48.704;9.474;2023-03-23T09:02:21;4.10;;;2.20;;
11996;SDS011;6058;48.704;9.474;2023-03-23T09:04:48;4.07;;;1.80;;
11996;SDS011;6058;48.704;9.474;2023-03-23T09:07:17;2.90;;;2.00;;
11996;SDS011;6058;48.704;9.474;2023-03-23T09:09:44;2.17;;;1.73;;
11996;SDS011;6058;48.704;9.474;2023-03-23T09:12:11;2.43;;;1.57;;
11996;SDS011;6058;48.704;9.474;2023-03-23T09:14:38;1.30;;;1.20;;
11996;SDS011;6058;48.704;9.474;2023-03-23T09:17:06;1.40;;;1.20;;
11996;SDS011;6058;48.704;9.474;2023-03-23T09:19:34;1.07;;;1.00;;
11996;SDS011;6058;48.704;9.474;2023-03-23T09:22:01;1.10;;;1.00;;
11996;SDS011;6058;48.704;9.474;2023-03-23T09:24:31;1.07;;;1.00;;
11996;SDS011;6058;48.704;9.474;2023-03-23T09:26:58;1.60;;;1.10;;
11996;SDS011;6058;48.704;9.474;2023-03-23T09:29:25;1.00;;;1.00;;
11996;SDS011;6058;48.704;9.474;2023-03-23T09:31:52;1.30;;;1.20;;
11996;SDS011;6058;48.704;9.474;2023-03-23T09:34:22;1.40;;;1.30;;
11996;SDS011;6058;48.704;9.474;2023-03-23T09:36:49;1.20;;;0.90;;
11996;SDS011;6058;48.704;9.474;2023-03-23T09:39:16;1.73;;;1.10;;
11996;SDS011;6058;48.704;9.474;2023-03-23T09:42:08;1.33;;;1.17;;
11996;SDS011;6058;48.704;9.474;2023-03-23T09:44:41;1.20;;;1.10;;
11996;SDS011;6058;48.704;9.474;2023-03-23T09:47:13;1.40;;;1.30;;
11996;SDS011;6058;48.704;9.474;2023-03-23T09:49:44;1.27;;;1.10;;
11996;SDS011;6058;48.704;9.474;2023-03-23T09:52:13;2.07;;;1.40;;
11996;SDS011;6058;48.704;9.474;2023-03-23T09:54:41;1.93;;;1.17;;
11996;SDS011;6058;48.704;9.474;2023-03-23T09:57:12;1.63;;;1.30;;
11996;SDS011;6058;48.704;9.474;2023-03-23T09:59:45;1.87;;;1.10;;
11996;SDS011;6058;48.704;9.474;2023-03-23T10:02:14;1.67;;;1.03;;
11996;SDS011;6058;48.704;9.474;2023-03-23T10:04:43;1.10;;;1.00;;
11996;SDS011;6058;48.704;9.474;2023-03-23T10:07:12;1.73;;;1.40;;
11996;SDS011;6058;48.704;9.474;2023-03-23T10:09:41;1.13;;;1.00;;
11996;SDS011;6058;48.704;9.474;2023-03-23T10:12:21;1.43;;;1.20;;
11996;SDS011;6058;48.704;9.474;2023-03-23T10:17:37;1.17;;;1.10;;
11996;SDS011;6058;48.704;9.474;2023-03-23T10:20:13;1.60;;;0.87;;
11996;SDS011;6058;48.704;9.474;2023-03-23T10:22:44;1.13;;;0.90;;
11996;SDS011;6058;48.704;9.474;2023-03-23T10:25:15;1.47;;;1.03;;
11996;SDS011;6058;48.704;9.474;2023-03-23T10:27:44;2.40;;;1.23;;
11996;SDS011;6058;48.704;9.474;2023-03-23T10:30:13;1.67;;;1.20;;
11996;SDS011;6058;48.704;9.474;2023-03-23T10:32:43;1.33;;;1.00;;
11996;SDS011;6058;48.704;9.474;2023-03-23T10:35:13;2.00;;;1.20;;
11996;SDS011;6058;48.704;9.474;2023-03-23T10:37:43;3.27;;;1.20;;
11996;SDS011;6058;48.704;9.474;2023-03-23T10:40:13;2.03;;;1.30;;
11996;SDS011;6058;48.704;9.474;2023-03-23T10:42:41;2.80;;;1.00;;
11996;SDS011;6058;48.704;9.474;2023-03-23T10:45:12;3.63;;;1.73;;
11996;SDS011;6058;48.704;9.474;2023-03-23T10:47:43;1.10;;;1.10;;
11996;SDS011;6058;48.704;9.474;2023-03-23T10:50:12;1.00;;;1.00;;
11996;SDS011;6058;48.704;9.474;2023-03-23T10:52:41;2.23;;;1.30;;
11996;SDS011;6058;48.704;9.474;2023-03-23T10:55:10;1.70;;;1.20;;
11996;SDS011;6058;48.704;9.474;2023-03-23T10:57:38;1.20;;;1.10;;
11996;SDS011;6058;48.704;9.474;2023-03-23T11:00:14;1.10;;;1.00;;
11996;SDS011;6058;48.704;9.474;2023-03-23T11:02:45;1.20;;;1.10;;
11996;SDS011;6058;48.704;9.474;2023-03-23T11:05:16;2.47;;;1.30;;
11996;SDS011;6058;48.704;9.474;2023-03-23T11:07:47;1.63;;;1.17;;
11996;SDS011;6058;48.704;9.474;2023-03-23T11:10:16;1.27;;;1.00;;
11996;SDS011;6058;48.704;9.474;2023-03-23T11:12:44;2.83;;;1.13;;
11996;SDS011;6058;48.704;9.474;2023-03-23T11:15:25;1.43;;;1.30;;
11996;SDS011;6058;48.704;9.474;2023-03-23T11:17:58;1.87;;;1.03;;
11996;SDS011;6058;48.704;9.474;2023-03-23T11:20:25;1.20;;;1.00;;
11996;SDS011;6058;48.704;9.474;2023-03-23T11:22:53;1.03;;;0.90;;
11996;SDS011;6058;48.704;9.474;2023-03-23T11:25:21;1.67;;;1.00;;
11996;SDS011;6058;48.704;9.474;2023-03-23T11:27:48;1.13;;;1.07;;
11996;SDS011;6058;48.704;9.474;2023-03-23T11:30:19;1.33;;;1.20;;
11996;SDS011;6058;48.704;9.474;2023-03-23T11:32:48;1.57;;;1.07;;
11996;SDS011;6058;48.704;9.474;2023-03-23T11:35:18;0.80;;;0.80;;
11996;SDS011;6058;48.704;9.474;2023-03-23T11:37:47;5.90;;;1.30;;
11996;SDS011;6058;48.704;9.474;2023-03-23T11:40:15;1.30;;;1.20;;
11996;SDS011;6058;48.704;9.474;2023-03-23T11:42:44;2.90;;;1.10;;
11996;SDS011;6058;48.704;9.474;2023-03-23T11:45:19;1.50;;;1.40;;
11996;SDS011;6058;48.704;9.474;2023-03-23T11:47:50;2.57;;;1.10;;
11996;SDS011;6058;48.704;9.474;2023-03-23T11:50:22;1.33;;;1.23;;
11996;SDS011;6058;48.704;9.474;2023-03-23T11:52:51;0.97;;;0.97;;
11996;SDS011;6058;48.704;9.474;2023-03-23T11:55:20;1.03;;;1.00;;
11996;SDS011;6058;48.704;9.474;2023-03-23T11:57:48;3.10;;;1.27;;
11996;SDS011;6058;48.704;9.474;2023-03-23T12:00:16;1.77;;;1.20;;
11996;SDS011;6058;48.704;9.474;2023-03-23T12:05:32;1.47;;;1.10;;
11996;SDS011;6058;48.704;9.474;2023-03-23T12:08:12;1.27;;;1.17;;
11996;SDS011;6058;48.704;9.474;2023-03-23T12:10:42;2.50;;;1.27;;
11996;SDS011;6058;48.704;9.474;2023-03-23T12:13:17;1.63;;;1.30;;
11996;SDS011;6058;48.704;9.474;2023-03-23T12:15:49;1.40;;;0.87;;
11996;SDS011;6058;48.704;9.474;2023-03-23T12:18:22;2.93;;;1.13;;
11996;SDS011;6058;48.704;9.474;2023-03-23T12:20:57;1.13;;;1.00;;
11996;SDS011;6058;48.704;9.474;2023-03-23T12:23:29;1.20;;;1.10;;
11996;SDS011;6058;48.704;9.474;2023-03-23T12:26:04;2.43;;;1.10;;
11996;SDS011;6058;48.704;9.474;2023-03-23T12:28:35;1.53;;;1.43;;
11996;SDS011;6058;48.704;9.474;2023-03-23T12:31:08;1.33;;;1.20;;
11996;SDS011;6058;48.704;9.474;2023-03-23T12:33:39;2.40;;;1.00;;
11996;SDS011;6058;48.704;9.474;2023-03-23T12:36:14;1.10;;;1.10;;
11996;SDS011;6058;48.704;9.474;2023-03-23T12:38:50;1.30;;;1.20;;
11996;SDS011;6058;48.704;9.474;2023-03-23T12:41:20;1.30;;;1.20;;
11996;SDS011;6058;48.704;9.474;2023-03-23T12:43:50;1.30;;;1.20;;
11996;SDS011;6058;48.704;9.474;2023-03-23T12:46:30;1.37;;;1.00;;
11996;SDS011;6058;48.704;9.474;2023-03-23T12:49:02;1.60;;;1.50;;
11996;SDS011;6058;48.704;9.474;2023-03-23T12:51:34;1.10;;;1.00;;
11996;SDS011;6058;48.704;9.474;2023-03-23T12:54:05;1.93;;;1.40;;
11996;SDS011;6058;48.704;9.474;2023-03-23T12:56:35;1.73;;;1.10;;
11996;SDS011;6058;48.704;9.474;2023-03-23T12:59:06;1.40;;;1.30;;
11996;SDS011;6058;48.704;9.474;2023-03-23T13:01:38;1.17;;;1.07;;
11996;SDS011;6058;48.704;9.474;2023-03-23T13:04:07;1.13;;;1.03;;
11996;SDS011;6058;48.704;9.474;2023-03-23T13:06:37;1.40;;;1.30;;
11996;SDS011;6058;48.704;9.474;2023-03-23T13:09:05;1.20;;;0.97;;
11996;SDS011;6058;48.704;9.474;2023-03-23T13:11:35;4.20;;;1.00;;
11996;SDS011;6058;48.704;9.474;2023-03-23T13:14:07;2.07;;;1.10;;
11996;SDS011;6058;48.704;9.474;2023-03-23T13:16:38;1.03;;;1.00;;
11996;SDS011;6058;48.704;9.474;2023-03-23T13:19:08;2.07;;;1.03;;
11996;SDS011;6058;48.704;9.474;2023-03-23T13:21:41;1.83;;;1.10;;
11996;SDS011;6058;48.704;9.474;2023-03-23T13:24:12;2.90;;;1.10;;
11996;SDS011;6058;48.704;9.474;2023-03-23T13:26:41;1.40;;;1.27;;
11996;SDS011;6058;48.704;9.474;2023-03-23T13:29:10;1.50;;;1.30;;
11996;SDS011;6058;48.704;9.474;2023-03-23T13:31:39;2.10;;;1.03;;
11996;SDS011;6058;48.704;9.474;2023-03-23T13:34:11;1.20;;;1.10;;
11996;SDS011;6058;48.704;9.474;2023-03-23T13:36:43;0.80;;;0.80;;
11996;SDS011;6058;48.704;9.474;2023-03-23T13:39:17;1.63;;;1.10;;
11996;SDS011;6058;48.704;9.474;2023-03-23T13:41:46;1.80;;;1.10;;
11996;SDS011;6058;48.704;9.474;2023-03-23T13:44:15;1.17;;;1.17;;
11996;SDS011;6058;48.704;9.474;2023-03-23T13:46:52;1.30;;;1.10;;
11996;SDS011;6058;48.704;9.474;2023-03-23T13:49:21;1.20;;;1.10;;
11996;SDS011;6058;48.704;9.474;2023-03-23T13:52:00;1.20;;;1.10;;
11996;SDS011;6058;48.704;9.474;2023-03-23T13:54:31;0.97;;;0.97;;
11996;SDS011;6058;48.704;9.474;2023-03-23T13:56:59;1.40;;;1.30;;
11996;SDS011;6058;48.704;9.474;2023-03-23T13:59:29;1.40;;;1.30;;
11996;SDS011;6058;48.704;9.474;2023-03-23T14:04:44;1.30;;;1.20;;
11996;SDS011;6058;48.704;9.474;2023-03-23T14:07:16;1.20;;;1.03;;
11996;SDS011;6058;48.704;9.474;2023-03-23T14:09:44;2.13;;;1.27;;
11996;SDS011;6058;48.704;9.474;2023-03-23T14:12:14;1.27;;;1.17;;
11996;SDS011;6058;48.704;9.474;2023-03-23T14:14:43;2.23;;;1.30;;
11996;SDS011;6058;48.704;9.474;2023-03-23T14:17:12;2.40;;;1.47;;
11996;SDS011;6058;48.704;9.474;2023-03-23T14:19:40;3.10;;;1.37;;
11996;SDS011;6058;48.704;9.474;2023-03-23T14:22:18;1.23;;;1.10;;
11996;SDS011;6058;48.704;9.474;2023-03-23T14:24:46;1.23;;;1.13;;
11996;SDS011;6058;48.704;9.474;2023-03-23T14:27:14;1.20;;;1.10;;
11996;SDS011;6058;48.704;9.474;2023-03-23T14:29:41;2.53;;;1.20;;
11996;SDS011;6058;48.704;9.474;2023-03-23T14:32:10;3.10;;;1.30;;
11996;SDS011;6058;48.704;9.474;2023-03-23T14:34:38;2.20;;;1.10;;
11996;SDS011;6058;48.704;9.474;2023-03-23T14:37:08;4.27;;;1.80;;
11996;SDS011;6058;48.704;9.474;2023-03-23T14:39:38;1.17;;;1.07;;
11996;SDS011;6058;48.704;9.474;2023-03-23T14:42:06;1.27;;;1.20;;
11996;SDS011;6058;48.704;9.474;2023-03-23T14:44:34;1.83;;;1.20;;
11996;SDS011;6058;48.704;9.474;2023-03-23T14:47:02;1.30;;;1.20;;
11996;SDS011;6058;48.704;9.474;2023-03-23T14:49:31;2.27;;;1.10;;
11996;SDS011;6058;48.704;9.474;2023-03-23T14:52:03;1.70;;;1.60;;
11996;SDS011;6058;48.704;9.474;2023-03-23T14:54:31;1.63;;;1.53;;
11996;SDS011;6058;48.704;9.474;2023-03-23T14:57:05;1.77;;;1.67;;
11996;SDS011;6058;48.704;9.474;2023-03-23T14:59:36;1.57;;;1.43;;
11996;SDS011;6058;48.704;9.474;2023-03-23T15:02:03;1.47;;;1.37;;
11996;SDS011;6058;48.704;9.474;2023-03-23T15:04:30;1.43;;;1.20;;
11996;SDS011;6058;48.704;9.474;2023-03-23T15:06:58;1.20;;;1.20;;
11996;SDS011;6058;48.704;9.474;2023-03-23T15:09:27;1.47;;;1.37;;
11996;SDS011;6058;48.704;9.474;2023-03-23T15:11:55;1.13;;;1.10;;
11996;SDS011;6058;48.704;9.474;2023-03-23T15:14:25;1.47;;;1.20;;
11996;SDS011;6058;48.704;9.474;2023-03-23T15:16:53;2.33;;;1.33;;
11996;SDS011;6058;48.704;9.474;2023-03-23T15:19:22;1.73;;;1.13;;
11996;SDS011;6058;48.704;9.474;2023-03-23T15:21:51;1.30;;;1.20;;
11996;SDS011;6058;48.704;9.474;2023-03-23T15:24:20;3.37;;;1.90;;
11996;SDS011;6058;48.704;9.474;2023-03-23T15:26:47;1.63;;;1.40;;
11996;SDS011;6058;48.704;9.474;2023-03-23T15:29:16;1.30;;;1.20;;